Eurocargo Venezia — IBKS — position and weather

sailwx.info

Track history (hours):
 
Tides and Currents Weather Stations Pressure Air Temp Water Temp Dewpoint Dewpoint Depression Visibility Wind Speed Wind Dir Waves Ship Positions

Eurocargo Venezia

Last reported at 2016-Jul-26 13:11 UTC. Time now 2016-Jul-26 19:55 UTC.
Position N 39°10' E 015°04'.

Length 200 m; draft 7.1 m.

Type: Ship (hazmat cat D). MMSI: 247297200.

Date/timePositionNaut miles runAvg speedWind from/ knotsBaromVisibWave heightAir tempDewpointWater temp
2016-Jul-26 13:11N 39°10' E 015°04'1218.9
2016-Jul-26 12:33N 39°01' E 015°12'1918.9
2016-Jul-26 11:33N 38°45' E 015°25'1919.2
2016-Jul-26 10:33N 38°27' E 015°36'1414.5
2016-Jul-26 09:34N 38°13' E 015°37'1717.5
2016-Jul-26 08:34N 37°57' E 015°29'1918.6
2016-Jul-26 07:33N 37°39' E 015°19'99 7.6
2016-Jul-25 18:33N 36°05' E 014°42'15 1.8
2016-Jul-25 10:14N 35°53' E 014°31'0 0.0
2016-Jul-25 09:26N 35°53' E 014°31'0 0.0
2016-Jul-25 08:32N 35°53' E 014°31'0 0.2
2016-Jul-25 07:33N 35°53' E 014°31'1414.5
2016-Jul-25 06:33N 36°04' E 014°42'1918.9
2016-Jul-25 05:33N 36°20' E 014°55'4319.0
2016-Jul-25 03:19N 36°56' E 015°24'1918.2
2016-Jul-25 02:18N 37°14' E 015°20'1718.6
2016-Jul-25 01:25N 37°27' E 015°08'3 1.3
2016-Jul-24 23:17N 37°29' E 015°06'13 7.8
2016-Jul-24 21:33N 37°39' E 015°18'1919.4
2016-Jul-24 20:33N 37°57' E 015°28'1818.0
2016-Jul-24 19:33N 38°13' E 015°36'1211.7
2016-Jul-24 18:33N 38°25' E 015°37'1918.7
2016-Jul-24 17:33N 38°42' E 015°26'1918.8
2016-Jul-24 16:32N 38°59' E 015°14'1819.0
2016-Jul-24 15:34N 39°14' E 015°00'1919.1
2016-Jul-24 14:33N 39°29' E 014°46'1919.1
2016-Jul-24 13:33N 39°45' E 014°32'2519.1
2016-Jul-24 12:15N 40°05' E 014°13'1319.3
2016-Jul-24 11:34N 40°16' E 014°03'1919.1
2016-Jul-24 10:33N 40°32' E 013°48'1918.6
2016-Jul-24 09:33N 40°47' E 013°34'5418.0
2016-Jul-24 06:33N 41°20' E 012°36'12618.1
2016-Jul-23 23:33N 42°48' E 010°34'1818.1
2016-Jul-23 22:34N 43°03' E 010°21'1818.0
2016-Jul-23 21:34N 43°19' E 010°10'1717.5
2016-Jul-23 20:34N 43°32' E 009°55'1818.1
2016-Jul-23 19:33N 43°46' E 009°38'1818.0
2016-Jul-23 18:34N 43°59' E 009°22'1717.4
2016-Jul-23 17:33N 44°13' E 009°06'1414.1
2016-Jul-23 16:33N 44°24' E 008°54'1 0.7
2016-Jul-23 15:33N 44°24' E 008°53'0 0.0
2016-Jul-23 14:33N 44°24' E 008°53'0 0.0
2016-Jul-23 13:33N 44°24' E 008°53'0 0.0
2016-Jul-23 12:33N 44°24' E 008°53'0 0.0
2016-Jul-23 11:33N 44°24' E 008°53'0 0.0
2016-Jul-23 10:33N 44°24' E 008°53'0 0.0
2016-Jul-23 09:33N 44°24' E 008°53'0 0.0
2016-Jul-23 08:33N 44°24' E 008°53'0 0.0
2016-Jul-23 07:33N 44°24' E 008°53'1 0.6
2016-Jul-23 06:33N 44°24' E 008°54'15 7.7
2016-Jul-23 04:33N 44°12' E 009°08'2019.6
2016-Jul-23 03:33N 43°57' E 009°26'1919.4
2016-Jul-23 02:33N 43°42' E 009°43'1919.1
2016-Jul-23 01:33N 43°29' E 010°02'1919.1
2016-Jul-23 00:33N 43°12' E 010°14'1919.4
2016-Jul-22 23:33N 42°55' E 010°26'1919.0
2016-Jul-22 22:33N 42°40' E 010°42'1918.9
2016-Jul-22 21:33N 42°25' E 010°58'2919.2
2016-Jul-22 20:03N 42°08' E 011°29'1819.4
2016-Jul-22 19:08N 41°55' E 011°46'3119.5
2016-Jul-22 17:33N 41°34' E 012°16'1919.5
2016-Jul-22 16:33N 41°21' E 012°35'1919.5
2016-Jul-22 15:33N 41°10' E 012°57'1919.4
2016-Jul-22 14:33N 40°59' E 013°18'1918.9
2016-Jul-22 13:33N 40°46' E 013°36'2020.1
2016-Jul-22 12:33N 40°29' E 013°51'2120.6
2016-Jul-22 11:33N 40°12' E 014°07'2120.8
2016-Jul-22 10:33N 39°56' E 014°23'3020.7
2016-Jul-22 09:07N 39°31' E 014°45'1220.7
2016-Jul-22 08:33N 39°22' E 014°54'7618.9
2016-Jul-22 04:33N 38°14' E 015°37'1919.2
2016-Jul-22 03:33N 37°56' E 015°29'2120.0
2016-Jul-22 02:29N 37°37' E 015°18'63 5.1
2016-Jul-21 14:14N 36°34' E 015°08'1217.4
2016-Jul-21 13:33N 36°25' E 014°59'1817.8
2016-Jul-21 12:33N 36°10' E 014°46'1817.6
2016-Jul-21 11:33N 35°56' E 014°34'4 3.9
2016-Jul-21 10:31N 35°53' E 014°31'0 0.0
2016-Jul-21 09:31N 35°53' E 014°31'0 0.0
2016-Jul-21 08:25N 35°53' E 014°31'0 0.0
2016-Jul-21 07:31N 35°53' E 014°31'0 0.0
2016-Jul-21 05:33N 35°53' E 014°31'0 0.0
2016-Jul-21 04:32N 35°53' E 014°31'0 0.0
2016-Jul-21 02:11N 35°53' E 014°31'4 5.9
2016-Jul-21 01:34N 35°56' E 014°34'2019.6
2016-Jul-21 00:33N 36°12' E 014°48'7718.1
2016-Jul-20 20:17N 37°27' E 015°08'3 0.4
2016-Jul-20 12:33N 37°29' E 015°06'10 9.9
2016-Jul-20 11:30N 37°35' E 015°16'1818.8
2016-Jul-20 10:33N 37°51' E 015°25'1817.7
2016-Jul-20 09:34N 38°08' E 015°34'1514.8
2016-Jul-20 08:34N 38°22' E 015°39'1918.9
2016-Jul-20 07:33N 38°39' E 015°28'1918.7
2016-Jul-20 06:30N 38°56' E 015°16'10918.3
2016-Jul-20 00:33N 40°25' E 013°55'1918.2
2016-Jul-19 23:30N 40°41' E 013°40'1717.9
2016-Jul-19 22:33N 40°54' E 013°26'1818.0
2016-Jul-19 21:33N 41°04' E 013°07'1818.2
2016-Jul-19 20:33N 41°15' E 012°47'1918.3
2016-Jul-19 19:32N 41°26' E 012°27'4018.4
2016-Jul-19 17:22N 41°54' E 011°49'4018.8
2016-Jul-19 15:14N 42°20' E 011°08'1420.1
2016-Jul-19 14:34N 42°28' E 010°53'2120.6
2016-Jul-19 13:33N 42°45' E 010°37'2020.2
2016-Jul-19 12:33N 43°02' E 010°23'2020.3
2016-Jul-19 11:33N 43°21' E 010°14'1312.6
2016-Jul-19 10:33N 43°34' E 010°18'1 1.2
2016-Jul-19 09:33N 43°35' E 010°19'0 0.0
2016-Jul-19 08:33N 43°35' E 010°19'0 0.0
2016-Jul-19 07:33N 43°35' E 010°19'0 0.0
2016-Jul-19 04:33N 43°35' E 010°19'1 1.3
2016-Jul-19 03:33N 43°34' E 010°18'7 7.3
2016-Jul-19 02:33N 43°29' E 010°10'1111.1
2016-Jul-19 01:33N 43°32' E 009°56'1515.2
2016-Jul-19 00:34N 43°43' E 009°41'1515.2
2016-Jul-18 23:33N 43°55' E 009°28'1515.1
2016-Jul-18 22:33N 44°06' E 009°14'1515.0
2016-Jul-18 21:33N 44°18' E 009°00'8 8.2
2016-Jul-18 20:32N 44°24' E 008°53'0 0.0
2016-Jul-18 19:32N 44°24' E 008°53'0 0.0
2016-Jul-18 18:32N 44°24' E 008°53'0 0.0
2016-Jul-18 17:32N 44°24' E 008°53'0 0.0
2016-Jul-18 16:32N 44°24' E 008°53'0 0.0
2016-Jul-18 15:32N 44°24' E 008°53'0 0.0
2016-Jul-18 14:29N 44°24' E 008°53'0 0.0
2016-Jul-18 13:29N 44°24' E 008°53'0 0.0
2016-Jul-18 12:32N 44°24' E 008°53'0 0.0
2016-Jul-18 11:32N 44°24' E 008°53'0 0.0
2016-Jul-18 10:32N 44°24' E 008°53'0 0.0
2016-Jul-18 09:32N 44°24' E 008°53'5 4.8
2016-Jul-18 08:34N 44°21' E 008°58'1918.7
2016-Jul-18 07:34N 44°07' E 009°15'1919.0
2016-Jul-18 06:33N 43°52' E 009°32'1918.8
2016-Jul-18 05:34N 43°37' E 009°48'1818.2
2016-Jul-18 04:33N 43°24' E 010°05'1918.5
2016-Jul-18 03:33N 43°08' E 010°17'1818.4
2016-Jul-18 02:33N 42°52' E 010°30'1918.2
2016-Jul-18 01:32N 42°37' E 010°45'1818.3
2016-Jul-18 00:34N 42°24' E 011°01'14618.2
2016-Jul-17 16:31N 40°50' E 013°32'1818.3
2016-Jul-17 15:33N 40°36' E 013°46'11118.5
2016-Jul-17 09:33N 39°05' E 015°09'2019.9
2016-Jul-17 08:33N 38°49' E 015°23'2019.9
2016-Jul-17 07:33N 38°31' E 015°34'1616.4
2016-Jul-17 06:33N 38°15' E 015°40'111 6.5
2016-Jul-16 13:33N 36°28' E 015°02'  
Track history (hours):
 
Tides and Currents Weather Stations Pressure Air Temp Water Temp Dewpoint Dewpoint Depression Visibility Wind Speed Wind Dir Waves Ship Positions

Eurocargo Venezia

Last reported at 2016-Jul-26 13:11 UTC. Time now 2016-Jul-26 19:55 UTC.
Position N 39°10' E 015°04'.

Length 200 m; draft 7.1 m.

Type: Ship (hazmat cat D). MMSI: 247297200.

Date/timePositionNaut miles runAvg speedWind from/ knotsBaromVisibWave heightAir tempDewpointWater temp
2016-Jul-26 13:11N 39°10' E 015°04'1218.9
2016-Jul-26 12:33N 39°01' E 015°12'1918.9
2016-Jul-26 11:33N 38°45' E 015°25'1919.2
2016-Jul-26 10:33N 38°27' E 015°36'1414.5
2016-Jul-26 09:34N 38°13' E 015°37'1717.5
2016-Jul-26 08:34N 37°57' E 015°29'1918.6
2016-Jul-26 07:33N 37°39' E 015°19'99 7.6
2016-Jul-25 18:33N 36°05' E 014°42'15 1.8
2016-Jul-25 10:14N 35°53' E 014°31'0 0.0
2016-Jul-25 09:26N 35°53' E 014°31'0 0.0
2016-Jul-25 08:32N 35°53' E 014°31'0 0.2
2016-Jul-25 07:33N 35°53' E 014°31'1414.5
2016-Jul-25 06:33N 36°04' E 014°42'1918.9
2016-Jul-25 05:33N 36°20' E 014°55'4319.0
2016-Jul-25 03:19N 36°56' E 015°24'1918.2
2016-Jul-25 02:18N 37°14' E 015°20'1718.6
2016-Jul-25 01:25N 37°27' E 015°08'3 1.3
2016-Jul-24 23:17N 37°29' E 015°06'13 7.8
2016-Jul-24 21:33N 37°39' E 015°18'1919.4
2016-Jul-24 20:33N 37°57' E 015°28'1818.0
2016-Jul-24 19:33N 38°13' E 015°36'1211.7
2016-Jul-24 18:33N 38°25' E 015°37'1918.7
2016-Jul-24 17:33N 38°42' E 015°26'1918.8
2016-Jul-24 16:32N 38°59' E 015°14'1819.0
2016-Jul-24 15:34N 39°14' E 015°00'1919.1
2016-Jul-24 14:33N 39°29' E 014°46'1919.1
2016-Jul-24 13:33N 39°45' E 014°32'2519.1
2016-Jul-24 12:15N 40°05' E 014°13'1319.3
2016-Jul-24 11:34N 40°16' E 014°03'1919.1
2016-Jul-24 10:33N 40°32' E 013°48'1918.6
2016-Jul-24 09:33N 40°47' E 013°34'5418.0
2016-Jul-24 06:33N 41°20' E 012°36'12618.1
2016-Jul-23 23:33N 42°48' E 010°34'1818.1
2016-Jul-23 22:34N 43°03' E 010°21'1818.0
2016-Jul-23 21:34N 43°19' E 010°10'1717.5
2016-Jul-23 20:34N 43°32' E 009°55'1818.1
2016-Jul-23 19:33N 43°46' E 009°38'1818.0
2016-Jul-23 18:34N 43°59' E 009°22'1717.4
2016-Jul-23 17:33N 44°13' E 009°06'1414.1
2016-Jul-23 16:33N 44°24' E 008°54'1 0.7
2016-Jul-23 15:33N 44°24' E 008°53'0 0.0
2016-Jul-23 14:33N 44°24' E 008°53'0 0.0
2016-Jul-23 13:33N 44°24' E 008°53'0 0.0
2016-Jul-23 12:33N 44°24' E 008°53'0 0.0
2016-Jul-23 11:33N 44°24' E 008°53'0 0.0
2016-Jul-23 10:33N 44°24' E 008°53'0 0.0
2016-Jul-23 09:33N 44°24' E 008°53'0 0.0
2016-Jul-23 08:33N 44°24' E 008°53'0 0.0
2016-Jul-23 07:33N 44°24' E 008°53'1 0.6
2016-Jul-23 06:33N 44°24' E 008°54'15 7.7
2016-Jul-23 04:33N 44°12' E 009°08'2019.6
2016-Jul-23 03:33N 43°57' E 009°26'1919.4
2016-Jul-23 02:33N 43°42' E 009°43'1919.1
2016-Jul-23 01:33N 43°29' E 010°02'1919.1
2016-Jul-23 00:33N 43°12' E 010°14'1919.4
2016-Jul-22 23:33N 42°55' E 010°26'1919.0
2016-Jul-22 22:33N 42°40' E 010°42'1918.9
2016-Jul-22 21:33N 42°25' E 010°58'2919.2
2016-Jul-22 20:03N 42°08' E 011°29'1819.4
2016-Jul-22 19:08N 41°55' E 011°46'3119.5
2016-Jul-22 17:33N 41°34' E 012°16'1919.5
2016-Jul-22 16:33N 41°21' E 012°35'1919.5
2016-Jul-22 15:33N 41°10' E 012°57'1919.4
2016-Jul-22 14:33N 40°59' E 013°18'1918.9
2016-Jul-22 13:33N 40°46' E 013°36'2020.1
2016-Jul-22 12:33N 40°29' E 013°51'2120.6
2016-Jul-22 11:33N 40°12' E 014°07'2120.8
2016-Jul-22 10:33N 39°56' E 014°23'3020.7
2016-Jul-22 09:07N 39°31' E 014°45'1220.7
2016-Jul-22 08:33N 39°22' E 014°54'7618.9
2016-Jul-22 04:33N 38°14' E 015°37'1919.2
2016-Jul-22 03:33N 37°56' E 015°29'2120.0
2016-Jul-22 02:29N 37°37' E 015°18'63 5.1
2016-Jul-21 14:14N 36°34' E 015°08'1217.4
2016-Jul-21 13:33N 36°25' E 014°59'1817.8
2016-Jul-21 12:33N 36°10' E 014°46'1817.6
2016-Jul-21 11:33N 35°56' E 014°34'4 3.9
2016-Jul-21 10:31N 35°53' E 014°31'0 0.0
2016-Jul-21 09:31N 35°53' E 014°31'0 0.0
2016-Jul-21 08:25N 35°53' E 014°31'0 0.0
2016-Jul-21 07:31N 35°53' E 014°31'0 0.0
2016-Jul-21 05:33N 35°53' E 014°31'0 0.0
2016-Jul-21 04:32N 35°53' E 014°31'0 0.0
2016-Jul-21 02:11N 35°53' E 014°31'4 5.9
2016-Jul-21 01:34N 35°56' E 014°34'2019.6
2016-Jul-21 00:33N 36°12' E 014°48'7718.1
2016-Jul-20 20:17N 37°27' E 015°08'3 0.4
2016-Jul-20 12:33N 37°29' E 015°06'10 9.9
2016-Jul-20 11:30N 37°35' E 015°16'1818.8
2016-Jul-20 10:33N 37°51' E 015°25'1817.7
2016-Jul-20 09:34N 38°08' E 015°34'1514.8
2016-Jul-20 08:34N 38°22' E 015°39'1918.9
2016-Jul-20 07:33N 38°39' E 015°28'1918.7
2016-Jul-20 06:30N 38°56' E 015°16'10918.3
2016-Jul-20 00:33N 40°25' E 013°55'1918.2
2016-Jul-19 23:30N 40°41' E 013°40'1717.9
2016-Jul-19 22:33N 40°54' E 013°26'1818.0
2016-Jul-19 21:33N 41°04' E 013°07'1818.2
2016-Jul-19 20:33N 41°15' E 012°47'1918.3
2016-Jul-19 19:32N 41°26' E 012°27'4018.4
2016-Jul-19 17:22N 41°54' E 011°49'4018.8
2016-Jul-19 15:14N 42°20' E 011°08'1420.1
2016-Jul-19 14:34N 42°28' E 010°53'2120.6
2016-Jul-19 13:33N 42°45' E 010°37'2020.2
2016-Jul-19 12:33N 43°02' E 010°23'2020.3
2016-Jul-19 11:33N 43°21' E 010°14'1312.6
2016-Jul-19 10:33N 43°34' E 010°18'1 1.2
2016-Jul-19 09:33N 43°35' E 010°19'0 0.0
2016-Jul-19 08:33N 43°35' E 010°19'0 0.0
2016-Jul-19 07:33N 43°35' E 010°19'0 0.0
2016-Jul-19 04:33N 43°35' E 010°19'1 1.3
2016-Jul-19 03:33N 43°34' E 010°18'7 7.3
2016-Jul-19 02:33N 43°29' E 010°10'1111.1
2016-Jul-19 01:33N 43°32' E 009°56'1515.2
2016-Jul-19 00:34N 43°43' E 009°41'1515.2
2016-Jul-18 23:33N 43°55' E 009°28'1515.1
2016-Jul-18 22:33N 44°06' E 009°14'1515.0
2016-Jul-18 21:33N 44°18' E 009°00'8 8.2
2016-Jul-18 20:32N 44°24' E 008°53'0 0.0
2016-Jul-18 19:32N 44°24' E 008°53'0 0.0
2016-Jul-18 18:32N 44°24' E 008°53'0 0.0
2016-Jul-18 17:32N 44°24' E 008°53'0 0.0
2016-Jul-18 16:32N 44°24' E 008°53'0 0.0
2016-Jul-18 15:32N 44°24' E 008°53'0 0.0
2016-Jul-18 14:29N 44°24' E 008°53'0 0.0
2016-Jul-18 13:29N 44°24' E 008°53'0 0.0
2016-Jul-18 12:32N 44°24' E 008°53'0 0.0
2016-Jul-18 11:32N 44°24' E 008°53'0 0.0
2016-Jul-18 10:32N 44°24' E 008°53'0 0.0
2016-Jul-18 09:32N 44°24' E 008°53'5 4.8
2016-Jul-18 08:34N 44°21' E 008°58'1918.7
2016-Jul-18 07:34N 44°07' E 009°15'1919.0
2016-Jul-18 06:33N 43°52' E 009°32'1918.8
2016-Jul-18 05:34N 43°37' E 009°48'1818.2
2016-Jul-18 04:33N 43°24' E 010°05'1918.5
2016-Jul-18 03:33N 43°08' E 010°17'1818.4
2016-Jul-18 02:33N 42°52' E 010°30'1918.2
2016-Jul-18 01:32N 42°37' E 010°45'1818.3
2016-Jul-18 00:34N 42°24' E 011°01'14618.2
2016-Jul-17 16:31N 40°50' E 013°32'1818.3
2016-Jul-17 15:33N 40°36' E 013°46'11118.5
2016-Jul-17 09:33N 39°05' E 015°09'2019.9
2016-Jul-17 08:33N 38°49' E 015°23'2019.9
2016-Jul-17 07:33N 38°31' E 015°34'1616.4
2016-Jul-17 06:33N 38°15' E 015°40'111 6.5
2016-Jul-16 13:33N 36°28' E 015°02'  

Dump ship's entire track history